createdAt,value
2018-12-30T00:01:15.924Z,12.33
2018-12-30T00:03:46.822Z,13.37
2018-12-30T00:06:17.999Z,12.47
2018-12-30T00:08:48.979Z,13.20
2018-12-30T00:11:20.170Z,13.43
2018-12-30T00:13:50.854Z,12.90
2018-12-30T00:16:21.557Z,13.70
2018-12-30T00:18:52.364Z,13.07
2018-12-30T00:21:23.067Z,12.70
2018-12-30T00:23:54.410Z,12.10
2018-12-30T00:26:25.157Z,13.60
2018-12-30T00:28:56.339Z,13.87
2018-12-30T00:31:27.474Z,13.43
2018-12-30T00:33:59.110Z,12.80
2018-12-30T00:36:30.949Z,12.53
2018-12-30T00:39:01.625Z,12.47
2018-12-30T00:41:32.680Z,12.53
2018-12-30T00:44:03.381Z,13.00
2018-12-30T00:46:34.560Z,13.73
2018-12-30T00:49:05.278Z,12.27
2018-12-30T00:51:35.946Z,12.33
2018-12-30T00:54:06.945Z,12.43
2018-12-30T00:56:37.768Z,13.63
2018-12-30T00:59:08.455Z,12.30
2018-12-30T01:01:39.274Z,13.60
2018-12-30T01:04:09.964Z,12.17
2018-12-30T01:06:42.333Z,12.23
2018-12-30T01:09:13.033Z,11.97
2018-12-30T01:11:43.741Z,13.03
2018-12-30T01:14:14.521Z,11.70
2018-12-30T01:16:45.180Z,12.53
2018-12-30T01:19:15.867Z,12.50
2018-12-30T01:21:46.625Z,12.23
2018-12-30T01:24:17.467Z,12.80
2018-12-30T01:26:48.150Z,11.97
2018-12-30T01:29:19.356Z,12.10
2018-12-30T01:31:50.021Z,12.47
2018-12-30T01:34:20.656Z,12.77
2018-12-30T01:36:51.314Z,13.17
2018-12-30T01:39:21.973Z,12.63
2018-12-30T01:41:52.680Z,13.07
2018-12-30T01:44:23.299Z,11.83
2018-12-30T01:46:54.073Z,13.90
2018-12-30T01:49:24.750Z,14.47
2018-12-30T01:51:55.498Z,14.20
2018-12-30T01:54:26.143Z,14.47
2018-12-30T01:56:56.877Z,13.30
2018-12-30T01:59:27.534Z,14.77
2018-12-30T02:01:58.995Z,14.67
2018-12-30T02:04:30.539Z,14.17
2018-12-30T02:07:02.205Z,14.17
2018-12-30T02:09:32.873Z,16.03
2018-12-30T02:12:03.581Z,14.20
2018-12-30T02:14:34.300Z,13.37
2018-12-30T02:17:05.155Z,14.60
2018-12-30T02:19:36.265Z,13.90
2018-12-30T02:22:06.932Z,13.63
2018-12-30T02:24:37.975Z,14.53
2018-12-30T02:27:08.592Z,14.97
2018-12-30T02:29:39.310Z,15.13
2018-12-30T02:32:09.931Z,15.23
2018-12-30T02:34:40.591Z,14.43
2018-12-30T02:37:11.512Z,14.30
2018-12-30T02:39:43.368Z,13.23
2018-12-30T02:42:14.048Z,14.60
2018-12-30T02:44:44.701Z,14.37
2018-12-30T02:47:15.371Z,14.70
2018-12-30T02:49:46.075Z,13.93
2018-12-30T02:52:16.872Z,13.30
2018-12-30T02:54:47.491Z,13.37
2018-12-30T02:57:18.241Z,13.23
2018-12-30T02:59:48.914Z,13.60
2018-12-30T03:02:19.661Z,12.47
2018-12-30T03:04:50.327Z,12.30
2018-12-30T03:07:21.043Z,12.70
2018-12-30T03:09:52.101Z,13.03
2018-12-30T03:12:22.816Z,11.77
2018-12-30T03:14:53.470Z,11.33
2018-12-30T03:17:24.101Z,12.30
2018-12-30T03:19:54.774Z,12.37
2018-12-30T03:22:25.501Z,11.63
2018-12-30T03:24:56.209Z,12.57
2018-12-30T03:27:26.924Z,12.50
2018-12-30T03:29:57.589Z,11.50
2018-12-30T03:32:28.440Z,12.90
2018-12-30T03:34:59.155Z,12.87
2018-12-30T03:37:30.508Z,11.77
2018-12-30T03:40:01.375Z,12.30
2018-12-30T03:42:32.013Z,12.13
2018-12-30T03:45:02.803Z,11.67
2018-12-30T03:47:33.405Z,10.40
2018-12-30T03:50:04.257Z,10.20
2018-12-30T03:52:35.382Z,11.27
2018-12-30T03:55:06.860Z,9.37
2018-12-30T03:57:38.075Z,9.87
2018-12-30T04:00:09.830Z,10.30
2018-12-30T04:02:41.853Z,10.00
2018-12-30T04:05:12.587Z,9.40
2018-12-30T04:07:43.232Z,8.97
2018-12-30T04:10:13.900Z,9.80
2018-12-30T04:12:44.663Z,9.00
2018-12-30T04:15:15.433Z,8.97
2018-12-30T04:17:46.104Z,7.70
2018-12-30T04:20:16.829Z,7.40
2018-12-30T04:22:47.445Z,6.60
2018-12-30T04:25:18.144Z,5.80
2018-12-30T04:27:48.792Z,6.20
2018-12-30T04:30:19.453Z,5.77
2018-12-30T04:32:50.117Z,5.90
2018-12-30T04:35:20.777Z,5.80
2018-12-30T04:37:51.457Z,5.50
2018-12-30T04:40:22.331Z,5.97
2018-12-30T04:42:52.933Z,4.70
2018-12-30T04:45:23.637Z,4.73
2018-12-30T04:47:55.687Z,3.93
2018-12-30T04:50:26.563Z,3.80
2018-12-30T04:52:57.252Z,3.40
2018-12-30T04:55:28.591Z,3.33
2018-12-30T04:57:59.235Z,3.10
2018-12-30T05:00:29.943Z,2.97
2018-12-30T05:03:00.605Z,2.97
2018-12-30T05:05:31.348Z,2.60
2018-12-30T05:08:02.038Z,2.57
2018-12-30T05:10:33.246Z,2.80
2018-12-30T05:13:03.946Z,2.50
2018-12-30T05:15:34.642Z,2.83
2018-12-30T05:18:05.323Z,2.10
2018-12-30T05:20:36.411Z,2.87
2018-12-30T05:23:07.290Z,2.43
2018-12-30T05:25:38.340Z,2.60
2018-12-30T05:28:09.674Z,2.67
2018-12-30T05:30:41.620Z,2.40
2018-12-30T05:33:12.526Z,2.43
2018-12-30T05:35:43.209Z,1.90
2018-12-30T05:38:14.181Z,2.07
2018-12-30T05:40:45.168Z,1.90
2018-12-30T05:43:15.906Z,1.80
2018-12-30T05:45:47.333Z,1.90
2018-12-30T05:48:18.817Z,1.53
2018-12-30T05:50:49.489Z,1.40
2018-12-30T05:53:20.240Z,1.50
2018-12-30T05:55:50.895Z,1.60
2018-12-30T05:58:21.562Z,1.30
2018-12-30T06:00:52.267Z,1.40
2018-12-30T06:03:22.953Z,1.57
2018-12-30T06:05:53.585Z,1.50
2018-12-30T06:08:24.533Z,1.60
2018-12-30T06:10:55.533Z,1.53
2018-12-30T06:13:26.242Z,1.73
2018-12-30T06:15:56.910Z,1.40
2018-12-30T06:18:27.554Z,1.63
2018-12-30T06:20:58.205Z,1.80
2018-12-30T06:23:28.855Z,1.80
2018-12-30T06:25:59.545Z,2.23
2018-12-30T06:28:30.477Z,2.10
2018-12-30T06:31:01.217Z,2.50
2018-12-30T06:33:31.877Z,2.07
2018-12-30T06:36:02.555Z,2.00
2018-12-30T06:38:33.293Z,2.10
2018-12-30T06:41:03.954Z,1.80
2018-12-30T06:43:35.048Z,2.00
2018-12-30T06:46:05.775Z,1.60
2018-12-30T06:48:36.474Z,1.90
2018-12-30T06:51:07.938Z,1.47
2018-12-30T06:53:38.785Z,1.20
2018-12-30T06:56:09.854Z,1.10
2018-12-30T06:58:40.712Z,1.20
2018-12-30T07:01:12.587Z,0.90
2018-12-30T07:03:43.697Z,0.90
2018-12-30T07:06:14.477Z,0.93
2018-12-30T07:08:45.153Z,0.90
2018-12-30T07:11:16.316Z,0.70
2018-12-30T07:13:47.095Z,0.70
2018-12-30T07:16:17.847Z,0.90
2018-12-30T07:18:48.528Z,1.00
2018-12-30T07:21:19.276Z,0.90
2018-12-30T07:23:50.011Z,0.90
2018-12-30T07:26:20.701Z,0.70
2018-12-30T07:28:51.410Z,0.73
2018-12-30T07:31:22.084Z,0.63
2018-12-30T07:33:54.526Z,0.70
2018-12-30T07:36:25.156Z,0.63
2018-12-30T07:38:55.882Z,0.70
2018-12-30T07:41:26.537Z,0.70
2018-12-30T07:43:57.222Z,0.77
2018-12-30T07:46:28.137Z,0.60
2018-12-30T07:49:04.892Z,0.70
2018-12-30T07:51:35.520Z,0.83
2018-12-30T07:54:06.233Z,0.80
2018-12-30T07:56:37.207Z,2.70
2018-12-30T07:59:07.938Z,0.80
2018-12-30T08:01:38.591Z,0.97
2018-12-30T08:04:09.591Z,0.90
2018-12-30T08:06:41.984Z,1.07
2018-12-30T08:09:13.303Z,0.73
2018-12-30T08:11:43.991Z,0.70
2018-12-30T08:14:15.524Z,0.87
2018-12-30T08:16:46.205Z,0.70
2018-12-30T08:19:16.970Z,0.90
2018-12-30T08:21:47.705Z,0.80
2018-12-30T08:24:18.340Z,1.17
2018-12-30T08:26:49.026Z,1.03
2018-12-30T08:29:20.156Z,1.10
2018-12-30T08:31:50.850Z,1.17
2018-12-30T08:34:21.579Z,1.40
2018-12-30T08:36:52.223Z,1.10
2018-12-30T08:39:24.952Z,1.10
2018-12-30T08:41:55.460Z,1.40
2018-12-30T08:44:26.997Z,1.70
2018-12-30T08:46:58.473Z,1.40
2018-12-30T08:49:29.859Z,1.90
2018-12-30T08:52:00.564Z,1.80
2018-12-30T08:54:31.311Z,1.83
2018-12-30T08:57:02.132Z,1.87
2018-12-30T08:59:32.820Z,1.57
2018-12-30T09:02:03.485Z,1.70
2018-12-30T09:04:34.795Z,1.93
2018-12-30T09:07:05.417Z,2.27
2018-12-30T09:09:36.202Z,1.73
2018-12-30T09:12:06.925Z,2.17
2018-12-30T09:14:37.696Z,1.77
2018-12-30T09:17:08.402Z,1.93
2018-12-30T09:19:42.365Z,2.30
2018-12-30T09:22:13.265Z,2.37
2018-12-30T09:24:44.266Z,2.30
2018-12-30T09:27:15.605Z,1.90
2018-12-30T09:29:46.384Z,1.90
2018-12-30T09:32:17.515Z,1.90
2018-12-30T09:34:48.254Z,1.80
2018-12-30T09:37:19.650Z,2.13
2018-12-30T09:39:50.382Z,2.37
2018-12-30T09:42:21.221Z,2.00
2018-12-30T09:44:53.996Z,2.13
2018-12-30T09:47:24.894Z,2.27
2018-12-30T09:49:56.095Z,2.20
2018-12-30T09:52:26.868Z,1.93
2018-12-30T09:54:57.580Z,2.17
2018-12-30T09:57:28.419Z,2.03
2018-12-30T09:59:59.089Z,1.97
2018-12-30T10:02:30.230Z,1.83
2018-12-30T10:05:01.355Z,1.87
2018-12-30T10:07:34.938Z,1.90
2018-12-30T10:10:07.683Z,1.87
2018-12-30T10:12:40.961Z,1.77
2018-12-30T10:15:12.209Z,1.60
2018-12-30T10:17:46.073Z,2.30
2018-12-30T10:20:16.851Z,1.83
2018-12-30T10:22:49.637Z,2.00
2018-12-30T10:25:21.382Z,2.40
2018-12-30T10:30:33.691Z,2.00
2018-12-30T10:33:04.669Z,2.10
2018-12-30T10:35:35.376Z,1.70
2018-12-30T10:38:06.065Z,2.00
2018-12-30T10:40:37.037Z,1.37
2018-12-30T10:43:07.784Z,1.33
2018-12-30T10:45:39.019Z,1.43
2018-12-30T10:48:09.836Z,1.77
2018-12-30T10:50:40.604Z,1.70
2018-12-30T10:53:11.260Z,1.40
2018-12-30T10:55:42.081Z,1.87
2018-12-30T10:58:12.732Z,2.20
2018-12-30T11:00:44.272Z,2.17
2018-12-30T11:03:14.969Z,2.63
2018-12-30T11:05:45.725Z,2.70
2018-12-30T11:08:17.780Z,2.57
2018-12-30T11:10:49.114Z,1.80
2018-12-30T11:13:20.160Z,2.37
2018-12-30T11:15:52.900Z,2.10
2018-12-30T11:18:23.972Z,2.03
2018-12-30T11:20:55.882Z,2.37
2018-12-30T11:23:26.995Z,1.67
2018-12-30T11:25:57.715Z,1.73
2018-12-30T11:28:28.534Z,1.80
2018-12-30T11:30:59.280Z,2.37
2018-12-30T11:33:29.926Z,1.80
2018-12-30T11:36:00.689Z,1.77
2018-12-30T11:38:31.343Z,1.33
2018-12-30T11:41:02.188Z,1.60
2018-12-30T11:43:33.560Z,1.60
2018-12-30T11:46:04.280Z,1.23
2018-12-30T11:48:34.963Z,1.50
2018-12-30T11:51:05.721Z,2.20
2018-12-30T11:53:36.375Z,2.03
2018-12-30T11:56:07.029Z,1.77
2018-12-30T11:58:37.865Z,1.80
2018-12-30T12:01:09.632Z,1.53
2018-12-30T12:03:41.241Z,2.20
2018-12-30T12:06:11.903Z,2.03
2018-12-30T12:08:42.691Z,1.97
2018-12-30T12:11:13.743Z,2.20
2018-12-30T12:13:44.396Z,1.90
2018-12-30T12:16:15.048Z,1.40
2018-12-30T12:18:45.814Z,1.60
2018-12-30T12:21:16.490Z,1.77
2018-12-30T12:23:47.191Z,2.27
2018-12-30T12:26:17.841Z,3.13
2018-12-30T12:28:48.557Z,1.90
2018-12-30T12:31:19.207Z,2.57
2018-12-30T12:33:49.910Z,1.73
2018-12-30T12:36:21.752Z,2.03
2018-12-30T12:38:52.435Z,1.90
2018-12-30T12:41:23.109Z,2.60
2018-12-30T12:43:53.773Z,1.80
2018-12-30T12:46:24.435Z,2.43
2018-12-30T12:48:55.128Z,2.10
2018-12-30T12:51:26.549Z,1.83
2018-12-30T12:53:57.286Z,1.80
2018-12-30T12:56:28.624Z,2.20
2018-12-30T12:58:59.432Z,2.47
2018-12-30T13:01:31.552Z,2.67
2018-12-30T13:04:02.339Z,1.90
2018-12-30T13:06:32.993Z,2.43
2018-12-30T13:09:04.031Z,2.93
2018-12-30T13:11:34.701Z,1.73
2018-12-30T13:14:05.372Z,1.93
2018-12-30T13:16:36.495Z,1.70
2018-12-30T13:19:07.316Z,1.93
2018-12-30T13:21:38.227Z,1.67
2018-12-30T13:24:09.099Z,1.70
2018-12-30T13:26:39.832Z,2.00
2018-12-30T13:29:10.506Z,2.10
2018-12-30T13:31:41.327Z,1.90
2018-12-30T13:34:12.026Z,2.83
2018-12-30T13:36:43.012Z,1.57
2018-12-30T13:39:13.667Z,1.37
2018-12-30T13:41:44.319Z,1.77
2018-12-30T13:44:14.960Z,1.77
2018-12-30T13:46:45.627Z,1.70
2018-12-30T13:49:16.323Z,1.60
2018-12-30T13:51:47.084Z,1.80
2018-12-30T13:54:17.730Z,1.40
2018-12-30T13:56:48.447Z,1.50
2018-12-30T13:59:19.151Z,1.50
2018-12-30T14:01:49.786Z,1.30
2018-12-30T14:04:20.508Z,1.50
2018-12-30T14:06:51.170Z,1.80
2018-12-30T14:09:21.867Z,2.03
2018-12-30T14:11:52.517Z,1.73
2018-12-30T14:14:23.162Z,2.03
2018-12-30T14:16:53.888Z,1.80
2018-12-30T14:19:24.596Z,1.73
2018-12-30T14:21:55.259Z,2.10
2018-12-30T14:24:26.047Z,2.00
2018-12-30T14:26:59.990Z,2.20
2018-12-30T14:29:29.244Z,2.20
2018-12-30T14:31:59.935Z,1.93
2018-12-30T14:34:32.378Z,2.13
2018-12-30T14:37:03.052Z,1.87
2018-12-30T14:39:34.181Z,1.93
2018-12-30T14:42:04.954Z,1.67
2018-12-30T14:44:36.428Z,1.70
2018-12-30T14:47:07.254Z,2.03
2018-12-30T14:49:38.655Z,1.20
2018-12-30T14:52:09.472Z,1.20
2018-12-30T14:54:41.927Z,1.67
2018-12-30T14:57:12.672Z,1.80
2018-12-30T14:59:43.438Z,1.67
2018-12-30T15:02:14.229Z,2.13
2018-12-30T15:04:44.937Z,1.93
2018-12-30T15:07:15.780Z,2.33
2018-12-30T15:09:46.511Z,1.80
2018-12-30T15:12:17.246Z,1.57
2018-12-30T15:14:48.002Z,1.97
2018-12-30T15:17:18.730Z,1.70
2018-12-30T15:19:49.476Z,1.70
2018-12-30T15:22:20.154Z,1.93
2018-12-30T15:24:50.884Z,1.50
2018-12-30T15:27:21.597Z,1.43
2018-12-30T15:29:52.473Z,1.40
2018-12-30T15:32:23.178Z,2.53
2018-12-30T15:34:54.027Z,1.93
2018-12-30T15:37:24.702Z,2.00
2018-12-30T15:39:55.459Z,1.80
2018-12-30T15:42:26.264Z,2.50
2018-12-30T15:44:56.962Z,1.87
2018-12-30T15:47:27.701Z,2.47
2018-12-30T15:49:58.437Z,2.50
2018-12-30T15:52:29.298Z,2.30
2018-12-30T15:54:59.971Z,2.47
2018-12-30T15:57:31.725Z,2.63
2018-12-30T16:00:02.596Z,1.97
2018-12-30T16:02:33.294Z,2.23
2018-12-30T16:05:04.103Z,2.03
2018-12-30T16:07:35.610Z,1.80
2018-12-30T16:10:08.024Z,2.20
2018-12-30T16:12:39.101Z,2.30
2018-12-30T16:15:10.276Z,2.17
2018-12-30T16:17:41.136Z,2.47
2018-12-30T16:20:11.858Z,2.37
2018-12-30T16:22:43.768Z,1.73
2018-12-30T16:25:14.489Z,2.17
2018-12-30T16:27:45.764Z,2.03
2018-12-30T16:30:16.527Z,2.13
2018-12-30T16:32:49.147Z,2.40
2018-12-30T16:35:19.933Z,2.47
2018-12-30T16:37:50.663Z,3.00
2018-12-30T16:40:21.408Z,2.40
2018-12-30T16:42:52.111Z,2.40
2018-12-30T16:45:22.951Z,2.00
2018-12-30T16:47:53.667Z,1.80
2018-12-30T16:50:24.420Z,2.57
2018-12-30T16:52:56.035Z,2.53
2018-12-30T16:55:26.742Z,2.43
2018-12-30T16:57:57.406Z,2.43
2018-12-30T17:00:28.911Z,2.57
2018-12-30T17:02:59.787Z,2.30
2018-12-30T17:05:30.484Z,2.30
2018-12-30T17:08:01.323Z,1.97
2018-12-30T17:10:32.883Z,2.20
2018-12-30T17:13:03.623Z,2.20
2018-12-30T17:15:34.473Z,2.73
2018-12-30T17:18:05.154Z,1.67
2018-12-30T17:20:35.849Z,2.10
2018-12-30T17:23:06.521Z,3.20
2018-12-30T17:25:42.965Z,2.20
2018-12-30T17:28:09.917Z,3.03
2018-12-30T17:30:42.105Z,2.83
2018-12-30T17:33:12.751Z,2.70
2018-12-30T17:35:46.199Z,3.07
2018-12-30T17:38:17.011Z,2.50
2018-12-30T17:40:47.993Z,3.43
2018-12-30T17:43:18.693Z,2.87
2018-12-30T17:45:50.192Z,2.43
2018-12-30T17:48:29.194Z,2.70
2018-12-30T17:50:59.844Z,2.97
2018-12-30T17:53:30.805Z,2.73
2018-12-30T17:56:01.488Z,2.07
2018-12-30T17:58:33.969Z,2.60
2018-12-30T18:01:04.734Z,1.83
2018-12-30T18:03:36.532Z,2.20
2018-12-30T18:06:07.392Z,2.13
2018-12-30T18:08:38.864Z,2.23
2018-12-30T18:11:11.473Z,2.17
2018-12-30T18:13:42.471Z,1.90
2018-12-30T18:16:13.260Z,2.80
2018-12-30T18:18:47.530Z,2.63
2018-12-30T18:21:18.334Z,3.50
2018-12-30T18:23:50.111Z,2.67
2018-12-30T18:26:21.127Z,2.90
2018-12-30T18:28:52.487Z,2.50
2018-12-30T18:31:23.399Z,2.40
2018-12-30T18:33:54.163Z,2.27
2018-12-30T18:36:24.906Z,1.60
2018-12-30T18:38:55.715Z,2.23
2018-12-30T18:41:26.425Z,2.00
2018-12-30T18:43:58.383Z,1.50
2018-12-30T18:46:30.652Z,1.77
2018-12-30T18:49:01.437Z,2.77
2018-12-30T18:51:32.049Z,2.00
2018-12-30T18:54:02.777Z,1.77
2018-12-30T18:56:33.541Z,2.00
2018-12-30T18:59:04.290Z,2.40
2018-12-30T19:01:36.497Z,2.43
2018-12-30T19:04:07.340Z,2.80
2018-12-30T19:06:38.255Z,2.83
2018-12-30T19:09:09.228Z,2.57
2018-12-30T19:11:40.087Z,2.50
2018-12-30T19:14:11.261Z,3.40
2018-12-30T19:16:42.330Z,2.00
2018-12-30T19:19:13.169Z,2.57
2018-12-30T19:21:44.402Z,2.57
2018-12-30T19:24:15.099Z,2.33
2018-12-30T19:26:45.939Z,2.07
2018-12-30T19:29:16.724Z,3.03
2018-12-30T19:31:47.472Z,2.07
2018-12-30T19:34:18.381Z,2.77
2018-12-30T19:36:49.205Z,2.63
2018-12-30T19:39:19.998Z,2.77
2018-12-30T19:41:51.841Z,2.33
2018-12-30T19:44:22.480Z,3.27
2018-12-30T19:46:53.849Z,2.63
2018-12-30T19:49:24.693Z,2.80
2018-12-30T19:51:56.239Z,2.50
2018-12-30T19:54:27.188Z,2.90
2018-12-30T19:56:57.902Z,2.50
2018-12-30T19:59:28.833Z,2.40
2018-12-30T20:01:59.730Z,2.60
2018-12-30T20:04:31.153Z,2.10
2018-12-30T20:07:01.933Z,2.33
2018-12-30T20:09:33.197Z,2.50
2018-12-30T20:12:04.072Z,2.40
2018-12-30T20:14:35.123Z,2.70
2018-12-30T20:17:06.561Z,2.90
2018-12-30T20:19:40.228Z,2.30
2018-12-30T20:22:12.540Z,2.03
2018-12-30T20:24:44.453Z,2.20
2018-12-30T20:27:16.983Z,2.63
2018-12-30T20:29:48.504Z,2.90
2018-12-30T20:32:24.344Z,2.20
2018-12-30T20:34:55.494Z,3.93
2018-12-30T20:37:26.668Z,2.77
2018-12-30T20:39:59.998Z,2.13
2018-12-30T20:42:30.955Z,3.27
2018-12-30T20:45:01.699Z,3.17
2018-12-30T20:47:32.472Z,3.13
2018-12-30T20:50:03.225Z,2.70
2018-12-30T20:52:35.083Z,3.60
2018-12-30T20:55:05.896Z,4.33
2018-12-30T20:57:36.686Z,3.13
2018-12-30T21:00:08.775Z,3.50
2018-12-30T21:02:40.096Z,3.47
2018-12-30T21:05:10.738Z,3.67
2018-12-30T21:07:41.410Z,4.73
2018-12-30T21:10:12.108Z,3.03
2018-12-30T21:12:44.312Z,3.60
2018-12-30T21:15:14.977Z,3.57
2018-12-30T21:17:45.635Z,3.43
2018-12-30T21:20:16.351Z,3.73
2018-12-30T21:22:49.062Z,3.13
2018-12-30T21:25:19.518Z,3.17
2018-12-30T21:27:50.258Z,3.10
2018-12-30T21:30:20.907Z,4.13
2018-12-30T21:32:51.600Z,3.90
2018-12-30T21:35:22.269Z,4.67
2018-12-30T21:37:52.946Z,3.77
2018-12-30T21:40:25.053Z,3.13
2018-12-30T21:42:56.008Z,3.20
2018-12-30T21:45:26.677Z,3.77
2018-12-30T21:47:57.595Z,3.47
2018-12-30T21:50:28.408Z,2.73
2018-12-30T21:52:59.637Z,2.60
2018-12-30T21:55:30.550Z,2.53
2018-12-30T21:58:01.825Z,3.27
2018-12-30T22:00:32.929Z,2.70
2018-12-30T22:03:04.079Z,2.37
2018-12-30T22:05:34.838Z,2.90
2018-12-30T22:08:05.644Z,3.07
2018-12-30T22:10:38.581Z,2.77
2018-12-30T22:13:09.469Z,3.23
2018-12-30T22:15:41.424Z,2.90
2018-12-30T22:18:16.058Z,2.73
2018-12-30T22:20:47.189Z,3.33
2018-12-30T22:23:18.309Z,3.07
2018-12-30T22:25:49.611Z,2.83
2018-12-30T22:28:20.798Z,3.13
2018-12-30T22:30:51.715Z,2.60
2018-12-30T22:33:22.481Z,2.43
2018-12-30T22:35:53.661Z,3.20
2018-12-30T22:38:24.409Z,2.83
2018-12-30T22:40:55.239Z,2.57
2018-12-30T22:43:25.948Z,2.63
2018-12-30T22:45:56.643Z,1.90
2018-12-30T22:48:28.195Z,2.60
2018-12-30T22:50:58.953Z,2.43
2018-12-30T22:53:30.043Z,2.70
2018-12-30T22:56:00.937Z,2.87
2018-12-30T22:58:31.972Z,2.30
2018-12-30T23:01:25.643Z,2.73
2018-12-30T23:03:57.221Z,2.13
2018-12-30T23:06:28.105Z,2.20
2018-12-30T23:09:05.223Z,2.33
2018-12-30T23:11:44.826Z,2.03
2018-12-30T23:14:20.958Z,2.70
2018-12-30T23:16:51.824Z,2.20
2018-12-30T23:19:22.561Z,2.57
2018-12-30T23:21:53.220Z,2.30
2018-12-30T23:24:23.858Z,2.53
2018-12-30T23:26:54.540Z,2.60
2018-12-30T23:29:25.230Z,2.83
2018-12-30T23:31:55.906Z,2.97
2018-12-30T23:34:26.628Z,2.33
2018-12-30T23:36:57.301Z,2.70
2018-12-30T23:39:27.976Z,2.63
2018-12-30T23:41:58.669Z,3.47
2018-12-30T23:44:29.399Z,4.03
2018-12-30T23:47:00.090Z,2.23
2018-12-30T23:49:31.160Z,3.00
2018-12-30T23:52:01.862Z,2.70
2018-12-30T23:54:32.623Z,3.07
2018-12-30T23:57:03.475Z,2.70
2018-12-30T23:59:34.177Z,3.33
